createdAt,value
2016-05-21T00:00:28.842Z,1014.31
2016-05-21T00:01:28.797Z,1014.3
2016-05-21T00:02:31.769Z,1014.3
2016-05-21T00:03:28.694Z,1014.3
2016-05-21T00:04:28.680Z,1014.3
2016-05-21T00:05:28.636Z,1014.26
2016-05-21T00:06:28.576Z,1014.3
2016-05-21T00:07:31.642Z,1014.28
2016-05-21T00:08:28.503Z,1014.26
2016-05-21T00:09:28.647Z,1014.26
2016-05-21T00:10:28.446Z,1014.28
2016-05-21T00:11:28.461Z,1014.26
2016-05-21T00:12:28.527Z,1014.27
2016-05-21T00:13:31.295Z,1014.26
2016-05-21T00:14:28.344Z,1014.3
2016-05-21T00:15:28.191Z,1014.29
2016-05-21T00:16:28.155Z,1014.26
2016-05-21T00:17:28.116Z,1014.26
2016-05-21T00:18:28.079Z,1014.29
2016-05-21T00:19:28.040Z,1014.24
2016-05-21T00:20:27.985Z,1014.26
2016-05-21T00:21:27.944Z,1014.22
2016-05-21T00:22:27.903Z,1014.17
2016-05-21T00:23:27.861Z,1014.18
2016-05-21T00:24:27.804Z,1014.17
2016-05-21T00:25:27.761Z,1014.18
2016-05-21T00:26:27.718Z,1014.18
2016-05-21T00:27:27.675Z,1014.18
2016-05-21T00:28:27.616Z,1014.18
2016-05-21T00:29:27.572Z,1014.16
2016-05-21T00:30:27.528Z,1014.17
2016-05-21T00:31:27.470Z,1014.16
2016-05-21T00:32:30.441Z,1014.19
2016-05-21T00:33:27.381Z,1014.15
2016-05-21T00:34:27.337Z,1014.12
2016-05-21T00:35:27.278Z,1014.11
2016-05-21T00:36:27.233Z,1014.1
2016-05-21T00:37:27.220Z,1014.1
2016-05-21T00:38:30.348Z,1014.12
2016-05-21T00:39:27.303Z,1014.09
2016-05-21T00:40:27.041Z,1014.07
2016-05-21T00:41:26.997Z,1014.07
2016-05-21T00:42:26.952Z,1014.1
2016-05-21T00:43:26.908Z,1014.07
2016-05-21T00:44:29.847Z,1014.07
2016-05-21T00:45:29.805Z,1014.07
2016-05-21T00:46:29.761Z,1014.08
2016-05-21T00:47:26.700Z,1014.05
2016-05-21T00:48:26.656Z,1014.05
2016-05-21T00:49:26.611Z,1014.04
2016-05-21T00:50:26.568Z,1014.07
2016-05-21T00:51:26.524Z,1014.06
2016-05-21T00:52:29.682Z,1014.07
2016-05-21T00:53:29.435Z,1014.04
2016-05-21T00:54:26.374Z,1014.07
2016-05-21T00:55:26.331Z,1014.05
2016-05-21T00:56:26.271Z,1014.05
2016-05-21T00:57:26.226Z,1014.02
2016-05-21T00:58:26.182Z,1014.01
2016-05-21T00:59:26.123Z,1014.02
2016-05-21T01:00:26.282Z,1014.02
2016-05-21T01:01:29.051Z,1014
2016-05-21T01:02:25.990Z,1014.01
2016-05-21T01:03:26.149Z,1013.97
2016-05-21T01:04:25.887Z,1013.99
2016-05-21T01:05:25.842Z,1013.97
2016-05-21T01:06:25.798Z,1013.97
2016-05-21T01:07:25.754Z,1013.96
2016-05-21T01:08:25.725Z,1013.91
2016-05-21T01:09:25.650Z,1013.95
2016-05-21T01:10:25.605Z,1013.94
2016-05-21T01:11:25.577Z,1013.93
2016-05-21T01:12:25.502Z,1013.92
2016-05-21T01:13:28.472Z,1013.91
2016-05-21T01:14:28.414Z,1013.89
2016-05-21T01:15:25.369Z,1013.92
2016-05-21T01:16:25.309Z,1013.92
2016-05-21T01:17:25.266Z,1013.85
2016-05-21T01:18:25.221Z,1013.85
2016-05-21T01:19:25.177Z,1013.84
2016-05-21T01:20:25.117Z,1013.88
2016-05-21T01:21:28.088Z,1013.89
2016-05-21T01:22:25.029Z,1013.89
2016-05-21T01:23:25.172Z,1013.9
2016-05-21T01:24:24.924Z,1013.88
2016-05-21T01:25:27.896Z,1013.93
2016-05-21T01:26:24.835Z,1013.91
2016-05-21T01:27:24.792Z,1013.9
2016-05-21T01:28:24.732Z,1013.94
2016-05-21T01:29:24.688Z,1013.93
2016-05-21T01:30:24.644Z,1013.97
2016-05-21T01:31:24.599Z,1013.95
2016-05-21T01:32:27.618Z,1013.97
2016-05-21T01:33:27.512Z,1013.95
2016-05-21T01:34:27.451Z,1013.92
2016-05-21T01:35:27.407Z,1013.92
2016-05-21T01:36:24.348Z,1013.93
2016-05-21T01:37:24.303Z,1013.93
2016-05-21T01:38:24.243Z,1013.94
2016-05-21T01:39:24.200Z,1013.92
2016-05-21T01:40:24.155Z,1013.92
2016-05-21T01:41:24.111Z,1013.92
2016-05-21T01:42:24.051Z,1013.95
2016-05-21T01:43:24.023Z,1013.89
2016-05-21T01:44:23.964Z,1013.91
2016-05-21T01:45:23.919Z,1013.91
2016-05-21T01:46:23.875Z,1013.88
2016-05-21T01:47:26.830Z,1013.88
2016-05-21T01:48:23.770Z,1013.9
2016-05-21T01:49:23.711Z,1013.92
2016-05-21T01:50:23.682Z,1013.94
2016-05-21T01:51:23.622Z,1013.93
2016-05-21T01:52:23.577Z,1013.91
2016-05-21T01:53:23.518Z,1013.91
2016-05-21T01:54:23.474Z,1013.91
2016-05-21T01:55:23.430Z,1013.89
2016-05-21T01:56:23.574Z,1013.86
2016-05-21T01:57:23.326Z,1013.84
2016-05-21T01:58:23.297Z,1013.84
2016-05-21T01:59:23.238Z,1013.85
2016-05-21T02:00:23.193Z,1013.86
2016-05-21T02:01:23.134Z,1013.83
2016-05-21T02:02:26.104Z,1013.8
2016-05-21T02:03:23.045Z,1013.84
2016-05-21T02:04:23.001Z,1013.83
2016-05-21T02:05:22.940Z,1013.82
2016-05-21T02:06:22.897Z,1013.87
2016-05-21T02:07:22.853Z,1013.83
2016-05-21T02:08:23.027Z,1013.85
2016-05-21T02:09:22.748Z,1013.82
2016-05-21T02:10:22.704Z,1013.88
2016-05-21T02:11:22.645Z,1013.87
2016-05-21T02:12:22.601Z,1013.87
2016-05-21T02:13:22.556Z,1013.84
2016-05-21T02:14:22.512Z,1013.85
2016-05-21T02:15:22.468Z,1013.84
2016-05-21T02:16:22.408Z,1013.87
2016-05-21T02:17:25.380Z,1013.84
2016-05-21T02:18:22.319Z,1013.87
2016-05-21T02:19:22.478Z,1013.87
2016-05-21T02:20:22.216Z,1013.89
2016-05-21T02:21:22.172Z,1013.88
2016-05-21T02:22:22.127Z,1013.84
2016-05-21T02:23:22.068Z,1013.84
2016-05-21T02:24:22.024Z,1013.86
2016-05-21T02:25:21.980Z,1013.85
2016-05-21T02:26:21.935Z,1013.86
2016-05-21T02:27:21.874Z,1013.87
2016-05-21T02:28:21.832Z,1013.81
2016-05-21T02:29:21.787Z,1013.85
2016-05-21T02:30:21.727Z,1013.82
2016-05-21T02:31:21.683Z,1013.79
2016-05-21T02:32:21.638Z,1013.82
2016-05-21T02:33:21.579Z,1013.78
2016-05-21T02:34:21.581Z,1013.75
2016-05-21T02:35:21.491Z,1013.78
2016-05-21T02:36:21.492Z,1013.77
2016-05-21T02:37:21.402Z,1013.76
2016-05-21T02:38:21.343Z,1013.79
2016-05-21T02:39:21.298Z,1013.76
2016-05-21T02:40:21.239Z,1013.76
2016-05-21T02:41:21.194Z,1013.77
2016-05-21T02:42:21.150Z,1013.75
2016-05-21T02:43:21.106Z,1013.81
2016-05-21T02:44:21.061Z,1013.78
2016-05-21T02:45:21.002Z,1013.81
2016-05-21T02:46:20.957Z,1013.76
2016-05-21T02:47:20.897Z,1013.78
2016-05-21T02:48:20.853Z,1013.75
2016-05-21T02:49:23.825Z,1013.73
2016-05-21T02:50:20.766Z,1013.74
2016-05-21T02:51:23.799Z,1013.73
2016-05-21T02:52:20.661Z,1013.73
2016-05-21T02:53:20.617Z,1013.76
2016-05-21T02:54:20.557Z,1013.71
2016-05-21T02:55:20.591Z,1013.67
2016-05-21T02:56:20.469Z,1013.67
2016-05-21T02:57:20.409Z,1013.71
2016-05-21T02:58:20.365Z,1013.68
2016-05-21T02:59:20.321Z,1013.69
2016-05-21T03:00:20.277Z,1013.68
2016-05-21T03:01:20.216Z,1013.66
2016-05-21T03:02:20.172Z,1013.71
2016-05-21T03:03:20.129Z,1013.66
2016-05-21T03:04:20.068Z,1013.68
2016-05-21T03:05:20.024Z,1013.68
2016-05-21T03:06:19.979Z,1013.61
2016-05-21T03:07:19.936Z,1013.64
2016-05-21T03:08:19.876Z,1013.65
2016-05-21T03:09:19.832Z,1013.6
2016-05-21T03:10:19.787Z,1013.62
2016-05-21T03:11:19.743Z,1013.61
2016-05-21T03:12:19.684Z,1013.63
2016-05-21T03:13:19.639Z,1013.66
2016-05-21T03:14:19.580Z,1013.61
2016-05-21T03:15:19.551Z,1013.64
2016-05-21T03:16:19.491Z,1013.6
2016-05-21T03:17:19.447Z,1013.61
2016-05-21T03:18:19.387Z,1013.62
2016-05-21T03:19:19.343Z,1013.58
2016-05-21T03:20:19.300Z,1013.55
2016-05-21T03:21:19.239Z,1013.54
2016-05-21T03:22:19.195Z,1013.54
2016-05-21T03:23:19.151Z,1013.52
2016-05-21T03:24:19.107Z,1013.52
2016-05-21T03:25:22.063Z,1013.55
2016-05-21T03:26:19.112Z,1013.53
2016-05-21T03:27:18.959Z,1013.55
2016-05-21T03:28:18.899Z,1013.53
2016-05-21T03:29:18.870Z,1013.58
2016-05-21T03:30:18.810Z,1013.55
2016-05-21T03:31:21.766Z,1013.57
2016-05-21T03:32:18.706Z,1013.59
2016-05-21T03:33:18.662Z,1013.6
2016-05-21T03:34:18.618Z,1013.6
2016-05-21T03:35:18.558Z,1013.61
2016-05-21T03:36:18.514Z,1013.61
2016-05-21T03:37:18.470Z,1013.6
2016-05-21T03:38:18.426Z,1013.58
2016-05-21T03:39:18.365Z,1013.6
2016-05-21T03:40:18.321Z,1013.61
2016-05-21T03:41:18.278Z,1013.63
2016-05-21T03:42:18.217Z,1013.66
2016-05-21T03:43:18.173Z,1013.61
2016-05-21T03:44:18.129Z,1013.64
2016-05-21T03:45:18.069Z,1013.66
2016-05-21T03:46:18.025Z,1013.61
2016-05-21T03:47:17.981Z,1013.6
2016-05-21T03:48:17.937Z,1013.59
2016-05-21T03:49:20.877Z,1013.63
2016-05-21T03:50:17.833Z,1013.63
2016-05-21T03:51:17.789Z,1013.63
2016-05-21T03:52:17.728Z,1013.61
2016-05-21T03:53:17.685Z,1013.61
2016-05-21T03:54:17.625Z,1013.59
2016-05-21T03:55:17.596Z,1013.54
2016-05-21T03:56:17.536Z,1013.56
2016-05-21T03:57:17.492Z,1013.48
2016-05-21T03:58:17.433Z,1013.48
2016-05-21T03:59:17.591Z,1013.5
2016-05-21T04:00:17.547Z,1013.46
2016-05-21T04:01:17.299Z,1013.47
2016-05-21T04:02:17.240Z,1013.41
2016-05-21T04:03:20.212Z,1013.46
2016-05-21T04:04:20.152Z,1013.42
2016-05-21T04:05:17.107Z,1013.45
2016-05-21T04:06:17.048Z,1013.45
2016-05-21T04:07:17.004Z,1013.42
2016-05-21T04:08:16.959Z,1013.43
2016-05-21T04:09:16.899Z,1013.39
2016-05-21T04:10:17.059Z,1013.43
2016-05-21T04:11:17.045Z,1013.41
2016-05-21T04:12:16.751Z,1013.41
2016-05-21T04:13:16.723Z,1013.38
2016-05-21T04:14:16.663Z,1013.36
2016-05-21T04:15:16.604Z,1013.37
2016-05-21T04:16:19.606Z,1013.31
2016-05-21T04:17:16.515Z,1013.33
2016-05-21T04:18:16.470Z,1013.33
2016-05-21T04:19:16.411Z,1013.33
2016-05-21T04:20:16.367Z,1013.32
2016-05-21T04:21:16.526Z,1013.31
2016-05-21T04:22:16.263Z,1013.33
2016-05-21T04:23:16.219Z,1013.28
2016-05-21T04:24:16.174Z,1013.28
2016-05-21T04:25:16.127Z,1013.29
2016-05-21T04:26:25.429Z,1013.24
2016-05-21T04:27:19.026Z,1013.25
2016-05-21T04:28:15.979Z,1013.25
2016-05-21T04:29:15.950Z,1013.23
2016-05-21T04:30:15.875Z,1013.21
2016-05-21T04:31:18.849Z,1013.28
2016-05-21T04:32:15.787Z,1013.28
2016-05-21T04:33:18.760Z,1013.28
2016-05-21T04:34:18.685Z,1013.22
2016-05-21T04:35:15.638Z,1013.28
2016-05-21T04:36:15.579Z,1013.27
2016-05-21T04:37:15.534Z,1013.27
2016-05-21T04:38:15.491Z,1013.23
2016-05-21T04:39:15.634Z,1013.27
2016-05-21T04:40:15.590Z,1013.24
2016-05-21T04:41:15.671Z,1013.26
2016-05-21T04:42:15.298Z,1013.27
2016-05-21T04:43:15.238Z,1013.24
2016-05-21T04:44:15.194Z,1013.27
2016-05-21T04:45:24.184Z,1013.26
2016-05-21T04:46:15.137Z,1013.3
2016-05-21T04:47:18.064Z,1013.3
2016-05-21T04:48:15.001Z,1013.26
2016-05-21T04:49:14.958Z,1013.25
2016-05-21T04:50:14.898Z,1013.27
2016-05-21T04:51:14.854Z,1013.22
2016-05-21T04:52:17.812Z,1013.21
2016-05-21T04:53:14.750Z,1013.18
2016-05-21T04:54:17.724Z,1013.19
2016-05-21T04:55:14.661Z,1013.17
2016-05-21T04:56:14.602Z,1013.2
2016-05-21T04:57:14.558Z,1013.19
2016-05-21T04:58:14.513Z,1013.19
2016-05-21T04:59:14.468Z,1013.11
2016-05-21T05:00:14.425Z,1013.15
2016-05-21T05:01:14.365Z,1013.19
2016-05-21T05:02:14.524Z,1013.13
2016-05-21T05:03:14.276Z,1013.17
2016-05-21T05:04:14.216Z,1013.15
2016-05-21T05:05:14.172Z,1013.14
2016-05-21T05:06:14.129Z,1013.14
2016-05-21T05:07:14.084Z,1013.17
2016-05-21T05:08:14.227Z,1013.18
2016-05-21T05:09:13.979Z,1013.14
2016-05-21T05:10:13.936Z,1013.13
2016-05-21T05:11:13.907Z,1013.14
2016-05-21T05:12:13.832Z,1013.12
2016-05-21T05:13:13.788Z,1013.15
2016-05-21T05:14:13.743Z,1013.13
2016-05-21T05:15:13.684Z,1013.2
2016-05-21T05:16:13.640Z,1013.13
2016-05-21T05:17:16.612Z,1013.09
2016-05-21T05:18:16.551Z,1013.11
2016-05-21T05:19:13.507Z,1013.1
2016-05-21T05:20:13.447Z,1013.14
2016-05-21T05:21:13.403Z,1013.18
2016-05-21T05:22:13.359Z,1013.22
2016-05-21T05:23:16.314Z,1013.21
2016-05-21T05:24:13.255Z,1013.15
2016-05-21T05:25:13.211Z,1013.13
2016-05-21T05:26:13.150Z,1013.11
2016-05-21T05:27:13.106Z,1013.12
2016-05-21T05:28:13.063Z,1013.18
2016-05-21T05:29:16.018Z,1013.16
2016-05-21T05:30:15.975Z,1013.1
2016-05-21T05:31:12.914Z,1013.15
2016-05-21T05:32:12.869Z,1013.13
2016-05-21T05:33:12.826Z,1013.08
2016-05-21T05:34:12.782Z,1013.04
2016-05-21T05:35:12.722Z,1013.07
2016-05-21T05:36:15.677Z,1013.07
2016-05-21T05:37:15.650Z,1013.07
2016-05-21T05:38:12.573Z,1013.07
2016-05-21T05:39:12.529Z,1013.1
2016-05-21T05:40:12.501Z,1013.07
2016-05-21T05:41:12.441Z,1013.05
2016-05-21T05:42:12.381Z,1013.08
2016-05-21T05:43:15.353Z,1013.06
2016-05-21T05:44:15.293Z,1013.04
2016-05-21T05:45:12.249Z,1013.06
2016-05-21T05:46:12.189Z,1013.06
2016-05-21T05:47:12.145Z,1013.07
2016-05-21T05:48:12.100Z,1013.06
2016-05-21T05:49:12.056Z,1013.07
2016-05-21T05:50:15.012Z,1013.04
2016-05-21T05:51:14.968Z,1013.06
2016-05-21T05:52:14.923Z,1013.07
2016-05-21T05:53:11.864Z,1013.13
2016-05-21T05:54:11.820Z,1013.14
2016-05-21T05:55:11.775Z,1013.15
2016-05-21T05:56:11.716Z,1013.15
2016-05-21T05:57:11.672Z,1013.15
2016-05-21T05:58:11.628Z,1013.14
2016-05-21T05:59:11.567Z,1013.17
2016-05-21T06:00:11.524Z,1013.18
2016-05-21T06:01:11.479Z,1013.14
2016-05-21T06:02:11.450Z,1013.13
2016-05-21T06:03:11.375Z,1013.18
2016-05-21T06:04:11.331Z,1013.14
2016-05-21T06:05:14.303Z,1013.09
2016-05-21T06:06:14.258Z,1013.11
2016-05-21T06:07:14.214Z,1013.12
2016-05-21T06:08:14.154Z,1013.12
2016-05-21T06:09:11.126Z,1013.13
2016-05-21T06:10:11.051Z,1013.1
2016-05-21T06:11:11.007Z,1013.15
2016-05-21T06:12:10.962Z,1013.12
2016-05-21T06:13:10.902Z,1013.22
2016-05-21T06:14:10.874Z,1013.22
2016-05-21T06:15:13.814Z,1013.24
2016-05-21T06:16:10.770Z,1013.28
2016-05-21T06:17:10.726Z,1013.26
2016-05-21T06:18:10.681Z,1013.28
2016-05-21T06:19:10.621Z,1013.29
2016-05-21T06:20:10.578Z,1013.28
2016-05-21T06:21:13.548Z,1013.26
2016-05-21T06:22:13.489Z,1013.27
2016-05-21T06:23:10.429Z,1013.27
2016-05-21T06:24:10.385Z,1013.24
2016-05-21T06:25:10.341Z,1013.22
2016-05-21T06:26:10.297Z,1013.29
2016-05-21T06:27:10.253Z,1013.29
2016-05-21T06:28:10.208Z,1013.25
2016-05-21T06:29:13.164Z,1013.3
2016-05-21T06:30:10.308Z,1013.3
2016-05-21T06:31:13.075Z,1013.31
2016-05-21T06:32:19.031Z,1013.32
2016-05-21T06:33:13.174Z,1013.31
2016-05-21T06:34:12.943Z,1013.31
2016-05-21T06:35:09.883Z,1013.34
2016-05-21T06:36:09.824Z,1013.29
2016-05-21T06:37:09.795Z,1013.29
2016-05-21T06:38:09.922Z,1013.31
2016-05-21T06:39:09.894Z,1013.31
2016-05-21T06:40:09.647Z,1013.29
2016-05-21T06:41:09.603Z,1013.29
2016-05-21T06:42:09.573Z,1013.27
2016-05-21T06:43:09.499Z,1013.29
2016-05-21T06:44:09.454Z,1013.29
2016-05-21T06:45:09.457Z,1013.31
2016-05-21T06:46:09.350Z,1013.32
2016-05-21T06:47:09.306Z,1013.34
2016-05-21T06:48:09.278Z,1013.34
2016-05-21T06:49:12.234Z,1013.35
2016-05-21T06:50:09.174Z,1013.37
2016-05-21T06:51:09.129Z,1013.38
2016-05-21T06:52:09.070Z,1013.32
2016-05-21T06:53:09.291Z,1013.33
2016-05-21T06:54:11.981Z,1013.3
2016-05-21T06:55:11.953Z,1013.31
2016-05-21T06:56:11.893Z,1013.31
2016-05-21T06:57:11.848Z,1013.33
2016-05-21T06:58:08.805Z,1013.33
2016-05-21T06:59:08.745Z,1013.3
2016-05-21T07:00:08.700Z,1013.32
2016-05-21T07:01:08.656Z,1013.27
2016-05-21T07:02:08.612Z,1013.33
2016-05-21T07:03:08.614Z,1013.3
2016-05-21T07:04:08.508Z,1013.29
2016-05-21T07:05:08.464Z,1013.29
2016-05-21T07:06:08.623Z,1013.33
2016-05-21T07:07:08.579Z,1013.34
2016-05-21T07:08:08.332Z,1013.3
2016-05-21T07:09:08.491Z,1013.29
2016-05-21T07:10:08.227Z,1013.23
2016-05-21T07:11:08.182Z,1013.27
2016-05-21T07:12:11.389Z,1013.25
2016-05-21T07:13:11.298Z,1013.21
2016-05-21T07:14:11.316Z,1013.18
2016-05-21T07:15:08.007Z,1013.23
2016-05-21T07:16:10.962Z,1013.23
2016-05-21T07:17:07.918Z,1013.26
2016-05-21T07:18:07.859Z,1013.22
2016-05-21T07:19:07.815Z,1013.22
2016-05-21T07:20:07.770Z,1013.2
2016-05-21T07:21:10.726Z,1013.19
2016-05-21T07:22:10.682Z,1013.21
2016-05-21T07:23:07.622Z,1013.24
2016-05-21T07:24:07.781Z,1013.24
2016-05-21T07:25:07.564Z,1013.2
2016-05-21T07:26:07.490Z,1013.2
2016-05-21T07:27:07.461Z,1013.22
2016-05-21T07:28:07.385Z,1013.22
2016-05-21T07:29:07.342Z,1013.15
2016-05-21T07:30:10.312Z,1013.18
2016-05-21T07:31:07.253Z,1013.17
2016-05-21T07:32:07.209Z,1013.13
2016-05-21T07:33:07.164Z,1013.16
2016-05-21T07:34:07.120Z,1013.13
2016-05-21T07:35:07.075Z,1013.15
2016-05-21T07:36:07.032Z,1013.17
2016-05-21T07:37:06.988Z,1013.17
2016-05-21T07:38:07.146Z,1013.24
2016-05-21T07:39:06.883Z,1013.26
2016-05-21T07:40:07.246Z,1013.28
2016-05-21T07:41:07.171Z,1013.26
2016-05-21T07:42:06.766Z,1013.27
2016-05-21T07:43:09.707Z,1013.3
2016-05-21T07:44:09.663Z,1013.34
2016-05-21T07:45:06.602Z,1013.38
2016-05-21T07:46:09.574Z,1013.27
2016-05-21T07:47:06.515Z,1013.25
2016-05-21T07:48:06.471Z,1013.29
2016-05-21T07:49:06.426Z,1013.23
2016-05-21T07:50:06.382Z,1013.21
2016-05-21T07:51:06.338Z,1013.19
2016-05-21T07:52:06.309Z,1013.18
2016-05-21T07:53:09.264Z,1013.21
2016-05-21T07:54:09.206Z,1013.21
2016-05-21T07:55:06.364Z,1013.2
2016-05-21T07:56:06.101Z,1013.21
2016-05-21T07:57:06.073Z,1013.22
2016-05-21T07:58:06.028Z,1013.28
2016-05-21T07:59:05.969Z,1013.28
2016-05-21T08:00:05.925Z,1013.23
2016-05-21T08:01:05.881Z,1013.23
2016-05-21T08:02:05.836Z,1013.28
2016-05-21T08:03:05.792Z,1013.24
2016-05-21T08:04:08.747Z,1013.2
2016-05-21T08:05:08.906Z,1013.25
2016-05-21T08:06:05.659Z,1013.23
2016-05-21T08:07:08.616Z,1013.24
2016-05-21T08:08:08.571Z,1013.19
2016-05-21T08:09:05.527Z,1013.19
2016-05-21T08:10:05.483Z,1013.23
2016-05-21T08:11:05.641Z,1013.25
2016-05-21T08:12:05.379Z,1013.21
2016-05-21T08:13:05.335Z,1013.25
2016-05-21T08:14:05.321Z,1013.21
2016-05-21T08:15:05.247Z,1013.21
2016-05-21T08:16:05.248Z,1013.23
2016-05-21T08:17:05.158Z,1013.24
2016-05-21T08:18:05.098Z,1013.24
2016-05-21T08:19:05.054Z,1013.25
2016-05-21T08:20:05.010Z,1013.22
2016-05-21T08:21:04.981Z,1013.21
2016-05-21T08:22:04.921Z,1013.2
2016-05-21T08:23:04.877Z,1013.22
2016-05-21T08:24:04.832Z,1013.19
2016-05-21T08:25:04.789Z,1013.2
2016-05-21T08:26:04.760Z,1013.25
2016-05-21T08:27:04.700Z,1013.18
2016-05-21T08:28:07.672Z,1013.16
2016-05-21T08:29:04.612Z,1013.15
2016-05-21T08:30:07.568Z,1013.17
2016-05-21T08:31:04.508Z,1013.22
2016-05-21T08:32:04.479Z,1013.17
2016-05-21T08:33:04.419Z,1013.17
2016-05-21T08:34:04.594Z,1013.16
2016-05-21T08:35:04.347Z,1013.21
2016-05-21T08:36:04.287Z,1013.11
2016-05-21T08:37:04.243Z,1013.19
2016-05-21T08:38:04.199Z,1013.15
2016-05-21T08:39:04.155Z,1013.14
2016-05-21T08:40:04.110Z,1013.13
2016-05-21T08:41:04.066Z,1013.16
2016-05-21T08:42:07.303Z,1013.15
2016-05-21T08:43:06.993Z,1013.13
2016-05-21T08:44:06.933Z,1013.11
2016-05-21T08:45:03.889Z,1013.15
2016-05-21T08:46:03.845Z,1013.07
2016-05-21T08:47:03.816Z,1013.05
2016-05-21T08:48:03.757Z,1013.07
2016-05-21T08:49:03.713Z,1013.05
2016-05-21T08:50:03.668Z,1013.05
2016-05-21T08:51:03.624Z,1013.04
2016-05-21T08:52:03.595Z,1013.06
2016-05-21T08:53:03.535Z,1013.03
2016-05-21T08:54:03.492Z,1013
2016-05-21T08:55:03.448Z,1012.99
2016-05-21T08:56:03.403Z,1012.95
2016-05-21T08:57:03.343Z,1012.91
2016-05-21T08:58:03.315Z,1012.94
2016-05-21T08:59:03.256Z,1012.95
2016-05-21T09:00:03.226Z,1012.94
2016-05-21T09:01:03.182Z,1012.98
2016-05-21T09:02:03.138Z,1012.94
2016-05-21T09:03:03.095Z,1012.94
2016-05-21T09:04:03.034Z,1012.97
2016-05-21T09:05:06.208Z,1012.98
2016-05-21T09:06:02.946Z,1013.01
2016-05-21T09:07:02.917Z,1012.98
2016-05-21T09:08:02.873Z,1012.93
2016-05-21T09:09:02.814Z,1013
2016-05-21T09:10:02.786Z,1013
2016-05-21T09:11:02.725Z,1012.97
2016-05-21T09:12:03.244Z,1013.06
2016-05-21T09:13:02.636Z,1013.03
2016-05-21T09:14:02.608Z,1013.02
2016-05-21T09:15:02.549Z,1012.98
2016-05-21T09:16:02.504Z,1013
2016-05-21T09:17:02.460Z,1012.97
2016-05-21T09:18:05.454Z,1012.89
2016-05-21T09:19:05.431Z,1012.9
2016-05-21T09:20:02.391Z,1012.91
2016-05-21T09:21:05.384Z,1012.86
2016-05-21T09:22:02.345Z,1012.89
2016-05-21T09:23:11.323Z,1012.85
2016-05-21T09:24:02.475Z,1012.83
2016-05-21T09:25:05.236Z,1012.78
2016-05-21T09:26:02.199Z,1012.81
2016-05-21T09:27:02.162Z,1012.87
2016-05-21T09:28:05.136Z,1012.85
2016-05-21T09:29:02.078Z,1012.8
2016-05-21T09:30:02.053Z,1012.8
2016-05-21T09:31:01.996Z,1012.81
2016-05-21T09:32:04.955Z,1012.82
2016-05-21T09:33:01.912Z,1012.79
2016-05-21T09:34:01.868Z,1012.69
2016-05-21T09:35:01.826Z,1012.73
2016-05-21T09:36:04.798Z,1012.74
2016-05-21T09:37:01.942Z,1012.81
2016-05-21T09:38:01.899Z,1012.76
2016-05-21T09:39:01.653Z,1012.78
2016-05-21T09:40:01.608Z,1012.77
2016-05-21T09:41:01.564Z,1012.77
2016-05-21T09:42:04.724Z,1012.75
2016-05-21T09:43:01.477Z,1012.78
2016-05-21T09:44:01.432Z,1012.77
2016-05-21T09:45:01.387Z,1012.77
2016-05-21T09:46:01.343Z,1012.69
2016-05-21T09:47:04.300Z,1012.74
2016-05-21T09:48:01.474Z,1012.68
2016-05-21T09:49:01.212Z,1012.57
2016-05-21T09:50:01.197Z,1012.64
2016-05-21T09:51:01.154Z,1012.59
2016-05-21T09:52:01.094Z,1012.56
2016-05-21T09:53:01.050Z,1012.5
2016-05-21T09:54:01.005Z,1012.47
2016-05-21T09:55:00.961Z,1012.43
2016-05-21T09:56:00.902Z,1012.43
2016-05-21T09:57:00.872Z,1012.37
2016-05-21T09:58:00.829Z,1012.38
2016-05-21T09:59:00.785Z,1012.38
2016-05-21T10:00:00.741Z,1012.46
2016-05-21T10:01:00.696Z,1012.4
2016-05-21T10:02:00.652Z,1012.36
2016-05-21T10:03:03.843Z,1012.37
2016-05-21T10:04:03.580Z,1012.34
2016-05-21T10:05:00.519Z,1012.32
2016-05-21T10:06:00.476Z,1012.29
2016-05-21T10:07:00.432Z,1012.32
2016-05-21T10:08:00.387Z,1012.28
2016-05-21T10:09:03.343Z,1012.32
2016-05-21T10:10:00.299Z,1012.29
2016-05-21T10:11:00.254Z,1012.27
2016-05-21T10:12:03.726Z,1012.23
2016-05-21T10:13:00.166Z,1012.29
2016-05-21T10:14:00.137Z,1012.28
2016-05-21T10:15:00.078Z,1012.26
2016-05-21T10:16:00.033Z,1012.26
2016-05-21T10:17:00.006Z,1012.25
2016-05-21T10:17:59.961Z,1012.18
2016-05-21T10:18:59.900Z,1012.2
2016-05-21T10:19:59.872Z,1012.2
2016-05-21T10:20:59.813Z,1012.18
2016-05-21T10:21:59.987Z,1012.12
2016-05-21T10:22:59.740Z,1012.1
2016-05-21T10:23:59.696Z,1012.12
2016-05-21T10:24:59.652Z,1012.04
2016-05-21T10:25:59.607Z,1012.1
2016-05-21T10:26:59.766Z,1012.04
2016-05-21T10:27:59.519Z,1012.05
2016-05-21T10:28:59.475Z,1012.12
2016-05-21T10:29:59.430Z,1012.11
2016-05-21T10:31:02.402Z,1012.04
2016-05-21T10:31:59.342Z,1012.05
2016-05-21T10:32:59.299Z,1012.05
2016-05-21T10:33:59.254Z,1012.02
2016-05-21T10:34:59.210Z,1012.01
2016-05-21T10:35:59.166Z,1012
2016-05-21T10:37:02.138Z,1011.98
2016-05-21T10:38:02.093Z,1011.96
2016-05-21T10:38:59.033Z,1011.97
2016-05-21T10:39:58.989Z,1011.92
2016-05-21T10:40:58.960Z,1011.96
2016-05-21T10:41:58.915Z,1011.97
2016-05-21T10:43:01.871Z,1011.94
2016-05-21T10:43:58.828Z,1011.94
2016-05-21T10:44:58.784Z,1011.92
2016-05-21T10:45:58.942Z,1012
2016-05-21T10:46:58.898Z,1011.94
2016-05-21T10:47:58.854Z,1011.95
2016-05-21T10:48:58.607Z,1011.93
2016-05-21T10:49:58.562Z,1011.88
2016-05-21T10:51:01.534Z,1011.92
2016-05-21T10:51:58.490Z,1011.93
2016-05-21T10:52:58.446Z,1011.93
2016-05-21T10:53:58.386Z,1011.94
2016-05-21T10:54:58.358Z,1011.97
2016-05-21T10:55:58.298Z,1011.97
2016-05-21T10:56:58.692Z,1012.04
2016-05-21T10:57:58.224Z,1012
2016-05-21T10:58:58.181Z,1012
2016-05-21T10:59:58.136Z,1011.91
2016-05-21T11:00:58.295Z,1011.94
2016-05-21T11:01:58.047Z,1011.89
2016-05-21T11:02:58.005Z,1011.85
2016-05-21T11:03:57.960Z,1011.88
2016-05-21T11:04:57.915Z,1011.85
2016-05-21T11:05:57.871Z,1011.92
2016-05-21T11:06:57.827Z,1011.87
2016-05-21T11:07:57.783Z,1011.83
2016-05-21T11:08:57.738Z,1011.85
2016-05-21T11:09:57.694Z,1011.77
2016-05-21T11:11:00.666Z,1011.84
2016-05-21T11:12:00.857Z,1011.9
2016-05-21T11:12:57.593Z,1011.82
2016-05-21T11:13:57.518Z,1011.83
2016-05-21T11:14:57.490Z,1011.78
2016-05-21T11:15:57.445Z,1011.82
2016-05-21T11:16:57.604Z,1011.89
2016-05-21T11:17:57.404Z,1011.85
2016-05-21T11:18:57.312Z,1011.86
2016-05-21T11:19:57.284Z,1011.9
2016-05-21T11:20:57.224Z,1011.84
2016-05-21T11:22:00.195Z,1011.84
2016-05-21T11:22:57.136Z,1011.87
2016-05-21T11:23:57.107Z,1011.81
2016-05-21T11:24:57.063Z,1011.81
2016-05-21T11:25:57.003Z,1011.79
2016-05-21T11:26:56.974Z,1011.77
2016-05-21T11:27:57.134Z,1011.78
2016-05-21T11:28:56.902Z,1011.76
2016-05-21T11:29:56.842Z,1011.75
2016-05-21T11:30:57.000Z,1011.78
2016-05-21T11:31:56.753Z,1011.72
2016-05-21T11:32:56.710Z,1011.77
2016-05-21T11:33:56.681Z,1011.78
2016-05-21T11:34:56.621Z,1011.74
2016-05-21T11:35:59.608Z,1011.73
2016-05-21T11:36:56.549Z,1011.68
2016-05-21T11:37:59.505Z,1011.73
2016-05-21T11:38:56.663Z,1011.72
2016-05-21T11:39:56.619Z,1011.77
2016-05-21T11:40:56.371Z,1011.78
2016-05-21T11:41:56.374Z,1011.75
2016-05-21T11:42:56.298Z,1011.68
2016-05-21T11:43:59.255Z,1011.77
2016-05-21T11:44:56.210Z,1011.71
2016-05-21T11:45:56.166Z,1011.69
2016-05-21T11:46:56.123Z,1011.73
2016-05-21T11:47:56.079Z,1011.68
2016-05-21T11:48:59.049Z,1011.75
2016-05-21T11:49:56.006Z,1011.66
2016-05-21T11:50:56.164Z,1011.68
2016-05-21T11:51:55.917Z,1011.68
2016-05-21T11:52:55.873Z,1011.64
2016-05-21T11:53:55.828Z,1011.66
2016-05-21T11:54:58.800Z,1011.68
2016-05-21T11:55:58.740Z,1011.69
2016-05-21T11:56:55.696Z,1011.69
2016-05-21T11:57:55.652Z,1011.65
2016-05-21T11:58:55.608Z,1011.65
2016-05-21T11:59:55.766Z,1011.68
2016-05-21T12:00:55.535Z,1011.67
2016-05-21T12:01:55.474Z,1011.68
2016-05-21T12:02:55.447Z,1011.78
2016-05-21T12:03:55.403Z,1011.73
2016-05-21T12:04:55.358Z,1011.72
2016-05-21T12:05:55.313Z,1011.75
2016-05-21T12:06:55.269Z,1011.74
2016-05-21T12:07:55.225Z,1011.76